Time;durP1;ratioP1;P1;durP2;ratioP2;P2;SDS_P1;SDS_P2;PMS_P1;PMS_P2;Temp;Humidity;BMP_temperature;BMP_pressure;BME280_temperature;BME280_humidity;BME280_pressure;Samples;Min_cycle;Max_cycle;Signal;HPM_P1;HPM_P2
2023/08/14 00:02:18;;;;;;;7.90;6.23;;;28.30;54.40;;;;;;5048318;28;20468;-80
2023/08/14 00:04:46;;;;;;;7.30;6.57;;;28.20;54.10;;;;;;5041593;28;20442;-81
2023/08/14 00:07:14;;;;;;;7.03;6.40;;;28.20;54.30;;;;;;5040255;28;20414;-83
2023/08/14 00:09:41;;;;;;;7.23;6.53;;;28.20;54.30;;;;;;5042549;28;20459;-81
2023/08/14 00:12:11;;;;;;;6.93;6.23;;;28.20;54.30;;;;;;5040945;28;20467;-81
2023/08/14 00:14:39;;;;;;;6.20;5.60;;;28.10;54.20;;;;;;5039928;28;20412;-83
2023/08/14 00:17:06;;;;;;;6.83;6.00;;;28.10;54.10;;;;;;5040824;28;20418;-81
2023/08/14 00:19:34;;;;;;;7.00;6.30;;;28.10;54.30;;;;;;5032126;28;20535;-81
2023/08/14 00:22:02;;;;;;;6.73;6.13;;;28.10;54.30;;;;;;5048770;28;20466;-80
2023/08/14 00:24:30;;;;;;;6.10;5.60;;;28.00;54.30;;;;;;5046864;28;20431;-82
2023/08/14 00:26:58;;;;;;;6.67;5.97;;;28.00;54.30;;;;;;5041107;28;20471;-81
2023/08/14 00:29:27;;;;;;;6.47;5.77;;;28.00;54.90;;;;;;5042427;28;20492;-83
2023/08/14 00:31:55;;;;;;;6.30;5.80;;;28.00;54.30;;;;;;5044781;28;20432;-80
2023/08/14 00:34:22;;;;;;;6.73;6.03;;;28.00;54.30;;;;;;5042408;28;20411;-79
2023/08/14 00:36:50;;;;;;;6.03;5.53;;;27.90;54.30;;;;;;5025354;28;20425;-81
2023/08/14 00:39:19;;;;;;;6.60;6.00;;;28.00;54.40;;;;;;5023889;28;20480;-83
2023/08/14 00:41:46;;;;;;;5.53;5.13;;;27.90;54.20;;;;;;5037257;28;20458;-81
2023/08/14 00:44:14;;;;;;;6.50;5.93;;;27.90;54.30;;;;;;5033932;28;20411;-81
2023/08/14 00:46:43;;;;;;;6.03;5.40;;;27.80;54.20;;;;;;5047959;28;20430;-80
2023/08/14 00:49:11;;;;;;;6.27;5.67;;;27.80;54.30;;;;;;5031048;28;20460;-81
2023/08/14 00:51:39;;;;;;;6.30;5.57;;;27.80;54.40;;;;;;5040349;28;20430;-81
2023/08/14 00:54:07;;;;;;;6.30;5.70;;;27.80;54.40;;;;;;5045289;28;20432;-81
2023/08/14 00:56:35;;;;;;;6.67;6.00;;;27.80;54.40;;;;;;5022430;28;20926;-82
2023/08/14 00:59:03;;;;;;;6.07;5.47;;;27.80;54.30;;;;;;5039566;28;20473;-82
2023/08/14 01:01:31;;;;;;;5.80;5.30;;;27.70;54.30;;;;;;5033960;28;20461;-82
2023/08/14 01:04:01;;;;;;;5.30;4.80;;;27.70;54.30;;;;;;5036913;28;20523;-83
2023/08/14 01:06:28;;;;;;;6.07;5.57;;;27.70;54.20;;;;;;5039746;28;20406;-81
2023/08/14 01:08:56;;;;;;;6.63;5.93;;;27.70;54.40;;;;;;5027041;28;20465;-81
2023/08/14 01:11:28;;;;;;;5.93;5.43;;;27.70;54.80;;;;;;5032798;28;20413;-81
2023/08/14 01:13:59;;;;;;;5.00;4.60;;;27.60;54.40;;;;;;5039027;28;20443;-80
2023/08/14 01:16:30;;;;;;;5.53;5.13;;;27.60;54.50;;;;;;5055958;28;20482;-81
2023/08/14 01:18:59;;;;;;;6.03;5.47;;;27.60;54.30;;;;;;5043704;28;20472;-81
2023/08/14 01:21:36;;;;;;;5.47;4.97;;;27.60;54.50;;;;;;5050539;28;20441;-82
2023/08/14 01:24:12;;;;;;;6.00;5.10;;;27.60;54.40;;;;;;5025175;28;20440;-81
2023/08/14 01:26:41;;;;;;;5.63;5.10;;;27.60;54.40;;;;;;5036560;28;20486;-81
2023/08/14 01:29:09;;;;;;;5.00;4.60;;;27.60;54.40;;;;;;5043318;28;20526;-81
2023/08/14 01:31:38;;;;;;;5.77;5.00;;;27.50;54.20;;;;;;5043636;28;20446;-81
2023/08/14 01:34:05;;;;;;;6.83;5.53;;;27.50;54.40;;;;;;5041550;28;20456;-81
2023/08/14 01:36:36;;;;;;;5.17;4.70;;;27.50;54.50;;;;;;5027895;28;20510;-81
2023/08/14 01:39:07;;;;;;;5.37;4.87;;;27.40;54.30;;;;;;5044123;28;20529;-81
2023/08/14 01:41:42;;;;;;;6.07;5.10;;;27.50;54.60;;;;;;5044414;28;20418;-81
2023/08/14 01:44:11;;;;;;;5.30;4.90;;;27.40;54.50;;;;;;5051479;28;20448;-82
2023/08/14 01:46:42;;;;;;;5.27;4.83;;;27.40;54.40;;;;;;5027477;28;20447;-80
2023/08/14 01:49:10;;;;;;;4.73;4.33;;;27.40;54.60;;;;;;5040105;28;20517;-80
2023/08/14 01:51:38;;;;;;;4.80;4.50;;;27.40;54.50;;;;;;5037524;28;20402;-80
2023/08/14 01:54:06;;;;;;;5.90;5.30;;;27.30;54.40;;;;;;5041583;28;20503;-82
2023/08/14 01:56:34;;;;;;;5.00;4.60;;;27.30;54.50;;;;;;5042652;28;20517;-82
2023/08/14 01:59:04;;;;;;;4.90;4.50;;;27.30;54.40;;;;;;5045155;28;20474;-82
2023/08/14 02:01:32;;;;;;;5.03;4.30;;;27.30;54.50;;;;;;5042852;28;20459;-81
2023/08/14 02:03:59;;;;;;;5.07;4.67;;;27.20;54.40;;;;;;5053881;28;20444;-81
2023/08/14 02:06:28;;;;;;;5.13;4.70;;;27.30;54.40;;;;;;5043038;28;20482;-81
2023/08/14 02:08:55;;;;;;;5.30;4.83;;;27.30;54.60;;;;;;5046820;28;20516;-81
2023/08/14 02:11:23;;;;;;;5.00;4.60;;;27.20;54.50;;;;;;5024636;28;20463;-82
2023/08/14 02:13:51;;;;;;;5.10;4.70;;;27.20;54.40;;;;;;5024336;28;20436;-83
2023/08/14 02:16:21;;;;;;;4.93;4.53;;;27.10;54.50;;;;;;5033015;28;20504;-82
2023/08/14 02:18:48;;;;;;;4.77;4.47;;;27.10;54.40;;;;;;5025924;28;20435;-81
2023/08/14 02:21:17;;;;;;;4.73;4.33;;;27.10;54.40;;;;;;5024429;28;20449;-81
2023/08/14 02:23:44;;;;;;;4.60;4.30;;;27.10;54.50;;;;;;5038593;28;20440;-81
2023/08/14 02:26:12;;;;;;;5.10;4.70;;;27.10;54.50;;;;;;5051165;28;20414;-83
2023/08/14 02:28:40;;;;;;;5.27;4.30;;;27.00;54.40;;;;;;5043402;28;20493;-82
2023/08/14 02:31:08;;;;;;;5.60;5.10;;;27.00;54.60;;;;;;5050196;28;20437;-80
2023/08/14 02:33:37;;;;;;;4.40;4.00;;;27.00;54.40;;;;;;5027448;28;20454;-81
2023/08/14 02:36:05;;;;;;;5.23;4.53;;;27.00;54.70;;;;;;5026499;28;20429;-80
2023/08/14 02:38:34;;;;;;;5.13;4.50;;;27.00;54.50;;;;;;5042353;28;20804;-81
2023/08/14 02:41:02;;;;;;;4.70;4.30;;;27.00;54.50;;;;;;5043501;28;20454;-81
2023/08/14 02:43:31;;;;;;;4.93;4.47;;;27.00;54.60;;;;;;5041769;28;20920;-81
2023/08/14 02:45:59;;;;;;;4.07;3.80;;;26.90;54.40;;;;;;5029718;28;20432;-83
2023/08/14 02:48:27;;;;;;;4.50;4.10;;;26.90;54.50;;;;;;5042713;28;20479;-80
2023/08/14 02:50:56;;;;;;;4.00;3.70;;;26.90;54.50;;;;;;5037659;28;20398;-82
2023/08/14 02:53:24;;;;;;;4.60;4.30;;;26.90;54.60;;;;;;5036920;28;20414;-80
2023/08/14 02:55:52;;;;;;;3.57;3.30;;;26.80;54.50;;;;;;5044464;28;20435;-81
2023/08/14 02:58:21;;;;;;;4.63;4.23;;;26.90;54.70;;;;;;5042177;28;20451;-79
2023/08/14 03:00:49;;;;;;;4.87;4.47;;;26.80;54.50;;;;;;5032995;28;20527;-79
2023/08/14 03:03:16;;;;;;;4.97;4.57;;;26.80;54.60;;;;;;5041576;28;20417;-79
2023/08/14 03:05:45;;;;;;;4.90;4.50;;;26.80;54.40;;;;;;5035361;28;20477;-81
2023/08/14 03:08:14;;;;;;;4.90;4.50;;;26.80;54.40;;;;;;5050756;28;20932;-81
2023/08/14 03:10:42;;;;;;;4.87;4.47;;;26.80;54.50;;;;;;5051365;28;20504;-81
2023/08/14 03:13:10;;;;;;;4.30;4.00;;;26.80;54.40;;;;;;5038458;28;20463;-81
2023/08/14 03:15:38;;;;;;;4.53;4.23;;;26.80;54.40;;;;;;5040676;28;20422;-80
2023/08/14 03:18:06;;;;;;;5.40;4.90;;;26.80;54.40;;;;;;5044456;28;20445;-81
2023/08/14 03:20:34;;;;;;;5.67;5.17;;;26.70;54.30;;;;;;5042537;28;20484;-81
2023/08/14 03:23:02;;;;;;;5.63;4.80;;;26.70;54.50;;;;;;5043842;28;20414;-81
2023/08/14 03:25:31;;;;;;;5.23;4.80;;;26.70;54.40;;;;;;5044414;28;20459;-81
2023/08/14 03:27:59;;;;;;;5.37;4.87;;;26.70;54.50;;;;;;5045361;28;20501;-81
2023/08/14 03:30:27;;;;;;;5.30;4.80;;;26.70;54.40;;;;;;5044575;28;20432;-81
2023/08/14 03:32:54;;;;;;;5.00;4.60;;;26.60;54.30;;;;;;5044762;28;20414;-81
2023/08/14 03:35:22;;;;;;;6.20;5.63;;;26.60;54.40;;;;;;5045644;28;20503;-81
2023/08/14 03:37:50;;;;;;;7.00;5.60;;;26.60;54.50;;;;;;5050455;28;20430;-81
2023/08/14 03:40:18;;;;;;;5.97;5.47;;;26.60;54.50;;;;;;5045127;28;20867;-82
2023/08/14 03:42:47;;;;;;;6.10;5.60;;;26.60;54.40;;;;;;5045387;28;20406;-84
2023/08/14 03:45:15;;;;;;;5.90;5.40;;;26.60;54.50;;;;;;5050897;28;20876;-81
2023/08/14 03:47:43;;;;;;;6.40;5.70;;;26.50;54.30;;;;;;5046235;28;20410;-81
2023/08/14 03:50:11;;;;;;;6.37;5.77;;;26.60;54.60;;;;;;5055139;23;20506;-79
2023/08/14 03:52:38;;;;;;;7.33;6.63;;;26.50;54.40;;;;;;5024112;28;20982;-80
2023/08/14 03:55:07;;;;;;;6.07;5.57;;;26.50;54.30;;;;;;5023587;28;20449;-80
2023/08/14 03:57:35;;;;;;;7.83;6.00;;;26.50;54.50;;;;;;5022699;28;20506;-81
2023/08/14 04:00:05;;;;;;;6.20;5.60;;;26.50;54.30;;;;;;5032480;28;20508;-79
2023/08/14 04:02:33;;;;;;;6.97;6.27;;;26.50;54.30;;;;;;5032535;28;20420;-80
2023/08/14 04:05:01;;;;;;;7.17;6.47;;;26.50;54.50;;;;;;5032710;28;20435;-80
2023/08/14 04:07:29;;;;;;;7.60;6.50;;;26.50;54.50;;;;;;5033012;28;20546;-81
2023/08/14 04:09:57;;;;;;;7.33;6.63;;;26.50;54.40;;;;;;5024873;28;20462;-79
2023/08/14 04:12:24;;;;;;;7.03;6.33;;;26.50;54.40;;;;;;5026658;28;20422;-80
2023/08/14 04:14:52;;;;;;;6.97;6.27;;;26.40;54.30;;;;;;5027970;28;20482;-80
2023/08/14 04:17:21;;;;;;;7.17;6.50;;;26.50;54.30;;;;;;5032731;28;20441;-80
2023/08/14 04:19:49;;;;;;;6.80;6.20;;;26.40;54.10;;;;;;5023984;28;20551;-80
2023/08/14 04:22:17;;;;;;;7.50;6.70;;;26.40;54.30;;;;;;5032715;28;20434;-80
2023/08/14 04:24:46;;;;;;;7.30;6.60;;;26.40;54.20;;;;;;5032364;28;20489;-80
2023/08/14 04:27:13;;;;;;;7.53;6.73;;;26.40;54.20;;;;;;5032250;28;20414;-80
2023/08/14 04:29:42;;;;;;;7.30;6.60;;;26.40;54.30;;;;;;5019767;28;20527;-79
2023/08/14 04:32:09;;;;;;;9.37;6.73;;;26.30;54.20;;;;;;5030287;28;20418;-81
2023/08/14 04:34:39;;;;;;;8.13;6.77;;;26.40;54.20;;;;;;5032616;28;20509;-79
2023/08/14 04:37:07;;;;;;;7.97;6.60;;;26.40;54.20;;;;;;5035813;28;20442;-80
2023/08/14 04:39:35;;;;;;;7.73;6.90;;;26.40;54.20;;;;;;5028445;28;20434;-81
2023/08/14 04:42:03;;;;;;;7.77;6.83;;;26.30;54.10;;;;;;5016194;28;20957;-82
2023/08/14 04:44:31;;;;;;;7.50;6.73;;;26.30;54.00;;;;;;5030886;28;20577;-80
2023/08/14 04:46:59;;;;;;;8.80;7.57;;;26.30;54.00;;;;;;5024266;28;20473;-80
2023/08/14 04:49:27;;;;;;;9.23;7.77;;;26.30;54.00;;;;;;5024351;28;20472;-81
2023/08/14 04:51:56;;;;;;;7.93;7.10;;;26.30;54.00;;;;;;5023429;28;20416;-80
2023/08/14 04:54:26;;;;;;;8.73;7.20;;;26.30;54.10;;;;;;5032230;28;20531;-80
2023/08/14 04:56:54;;;;;;;8.60;7.60;;;26.30;54.00;;;;;;5029644;28;20422;-81
2023/08/14 04:59:22;;;;;;;10.47;8.13;;;26.30;54.00;;;;;;5024604;28;20537;-82
2023/08/14 05:01:50;;;;;;;8.07;7.27;;;26.30;54.00;;;;;;5025379;28;20577;-80
2023/08/14 05:04:18;;;;;;;8.93;8.00;;;26.30;54.00;;;;;;5031077;28;20410;-80
2023/08/14 05:06:46;;;;;;;8.33;7.53;;;26.30;53.90;;;;;;5029864;28;20425;-80
2023/08/14 05:09:15;;;;;;;8.43;7.47;;;26.30;53.90;;;;;;5017295;28;20961;-82
2023/08/14 05:11:54;;;;;;;10.27;7.63;;;26.30;53.70;;;;;;5021139;28;20425;-80
2023/08/14 05:14:22;;;;;;;10.20;8.27;;;26.30;53.90;;;;;;5020016;28;20450;-80
2023/08/14 05:16:50;;;;;;;9.87;8.00;;;26.30;53.80;;;;;;5030134;28;20485;-80
2023/08/14 05:19:18;;;;;;;10.20;8.10;;;26.30;53.60;;;;;;5025227;28;20499;-80
2023/08/14 05:21:47;;;;;;;9.00;7.90;;;26.30;54.00;;;;;;5031169;28;20574;-80
2023/08/14 05:24:16;;;;;;;10.57;8.40;;;26.30;53.60;;;;;;5032093;28;20475;-80
2023/08/14 05:26:44;;;;;;;8.87;7.97;;;26.20;53.80;;;;;;5031611;28;20460;-80
2023/08/14 05:29:12;;;;;;;12.70;7.73;;;26.30;53.80;;;;;;5032012;28;20467;-80
2023/08/14 05:31:40;;;;;;;10.07;8.60;;;26.30;53.70;;;;;;5031032;28;20440;-80
2023/08/14 05:34:08;;;;;;;9.37;8.30;;;26.30;53.60;;;;;;5031225;28;20444;-80
2023/08/14 05:36:36;;;;;;;9.87;8.33;;;26.40;53.60;;;;;;5028242;28;20491;-80
2023/08/14 05:39:05;;;;;;;9.40;8.37;;;26.30;53.30;;;;;;5023200;28;20894;-80
2023/08/14 05:41:35;;;;;;;10.23;8.53;;;26.30;53.30;;;;;;5031447;28;20454;-80
2023/08/14 05:44:03;;;;;;;9.80;8.63;;;26.40;53.70;;;;;;5031161;28;20489;-80
2023/08/14 05:46:31;;;;;;;11.50;8.57;;;26.40;53.60;;;;;;5031387;28;20480;-80
2023/08/14 05:48:59;;;;;;;10.20;9.00;;;26.40;53.30;;;;;;5031348;28;21018;-80
2023/08/14 05:51:26;;;;;;;9.10;8.10;;;26.40;53.50;;;;;;5013181;28;20438;-80
2023/08/14 05:53:54;;;;;;;8.60;7.77;;;26.40;53.40;;;;;;5031232;28;20445;-80
2023/08/14 05:56:22;;;;;;;10.40;8.70;;;26.50;53.30;;;;;;5031201;28;20414;-80
2023/08/14 05:58:51;;;;;;;9.07;8.13;;;26.40;53.10;;;;;;5034624;28;20467;-79
2023/08/14 06:01:20;;;;;;;10.50;8.33;;;26.50;53.10;;;;;;5035367;28;20964;-80
2023/08/14 06:03:47;;;;;;;10.77;8.87;;;26.50;53.20;;;;;;5035315;28;20440;-81
2023/08/14 06:06:15;;;;;;;9.67;8.60;;;26.50;53.10;;;;;;5034970;28;20505;-81
2023/08/14 06:08:43;;;;;;;10.50;9.40;;;26.50;53.20;;;;;;5032870;28;20481;-80
2023/08/14 06:11:11;;;;;;;11.20;8.80;;;26.60;53.20;;;;;;5035188;28;20434;-80
2023/08/14 06:13:39;;;;;;;10.23;9.00;;;26.60;53.10;;;;;;5035302;28;20463;-78
2023/08/14 06:16:08;;;;;;;11.93;9.27;;;26.60;53.00;;;;;;5035353;28;20406;-80
2023/08/14 06:18:36;;;;;;;10.03;8.63;;;26.60;53.00;;;;;;5034746;28;20410;-79
2023/08/14 06:21:04;;;;;;;10.77;8.43;;;26.60;52.80;;;;;;5026177;28;20434;-80
2023/08/14 06:23:31;;;;;;;10.57;8.80;;;26.60;52.80;;;;;;5027764;28;20468;-77
2023/08/14 06:25:59;;;;;;;11.87;9.40;;;26.60;52.70;;;;;;5020886;28;20448;-80
2023/08/14 06:28:27;;;;;;;10.10;8.60;;;26.70;52.70;;;;;;5034043;28;20511;-80
2023/08/14 06:30:55;;;;;;;19.90;9.33;;;26.70;52.60;;;;;;5034147;28;20960;-80
2023/08/14 06:33:24;;;;;;;11.00;9.30;;;26.70;52.70;;;;;;5032994;28;20502;-81
2023/08/14 06:35:53;;;;;;;11.40;9.17;;;26.80;52.70;;;;;;5034108;28;20480;-80
2023/08/14 06:38:22;;;;;;;11.83;9.47;;;26.80;52.60;;;;;;5033836;28;20479;-80
2023/08/14 06:40:49;;;;;;;11.20;9.33;;;26.90;52.60;;;;;;5032584;28;20493;-80
2023/08/14 06:43:17;;;;;;;11.20;9.63;;;26.90;52.50;;;;;;5032117;28;20473;-81
2023/08/14 06:45:47;;;;;;;11.17;9.03;;;27.00;52.40;;;;;;5034117;28;20402;-79
2023/08/14 06:48:15;;;;;;;10.83;9.10;;;27.00;52.40;;;;;;5028829;28;20525;-76
2023/08/14 06:50:44;;;;;;;12.13;9.90;;;27.10;52.40;;;;;;5029484;28;20481;-77
2023/08/14 06:53:12;;;;;;;11.30;9.30;;;27.20;52.20;;;;;;5033080;28;20414;-80
2023/08/14 06:55:40;;;;;;;10.20;8.83;;;27.20;52.10;;;;;;5032711;28;20424;-79
2023/08/14 06:58:08;;;;;;;10.53;9.33;;;27.20;52.00;;;;;;5027347;28;20453;-79
2023/08/14 07:00:36;;;;;;;9.87;8.53;;;27.20;52.20;;;;;;5029931;28;20438;-83
2023/08/14 07:03:04;;;;;;;9.50;8.50;;;27.20;52.10;;;;;;5030408;28;20457;-79
2023/08/14 07:05:32;;;;;;;12.20;9.30;;;27.30;52.00;;;;;;5032675;28;20730;-79
2023/08/14 07:08:01;;;;;;;9.97;8.90;;;27.30;52.30;;;;;;5022609;28;20501;-79
2023/08/14 07:10:29;;;;;;;11.40;9.43;;;27.30;52.20;;;;;;5013023;28;20466;-79
2023/08/14 07:12:57;;;;;;;11.03;9.37;;;27.30;52.40;;;;;;5025083;28;20406;-80
2023/08/14 07:15:26;;;;;;;11.47;9.77;;;27.40;52.20;;;;;;5022799;28;20458;-79
2023/08/14 07:17:54;;;;;;;11.30;9.77;;;27.40;51.90;;;;;;5029154;28;20501;-80
2023/08/14 07:20:21;;;;;;;9.63;8.63;;;27.40;52.00;;;;;;5020673;28;20437;-80
2023/08/14 07:22:53;;;;;;;10.57;9.10;;;27.40;52.00;;;;;;5018889;28;20450;-79
2023/08/14 07:25:21;;;;;;;10.53;9.43;;;27.50;52.10;;;;;;5028012;28;20414;-79
2023/08/14 07:27:49;;;;;;;10.23;9.13;;;27.50;52.20;;;;;;5031936;28;20422;-79
2023/08/14 07:30:16;;;;;;;10.10;8.80;;;27.60;52.20;;;;;;5023652;28;21001;-79
2023/08/14 07:32:44;;;;;;;13.13;9.77;;;27.60;52.20;;;;;;5023826;28;20939;-79
2023/08/14 07:35:12;;;;;;;10.50;9.20;;;27.70;52.20;;;;;;5022242;28;20435;-80
2023/08/14 07:37:40;;;;;;;10.10;9.10;;;27.90;52.00;;;;;;5027813;28;20463;-80
2023/08/14 07:40:09;;;;;;;11.07;9.60;;;28.00;52.00;;;;;;5023585;28;20446;-80
2023/08/14 07:42:38;;;;;;;10.40;9.23;;;28.10;51.70;;;;;;5020971;28;20494;-78
2023/08/14 07:45:07;;;;;;;12.30;10.30;;;28.20;51.50;;;;;;5029054;28;20453;-80
2023/08/14 07:47:35;;;;;;;10.03;9.03;;;28.30;51.50;;;;;;5031760;28;20528;-79
2023/08/14 07:50:02;;;;;;;10.00;8.73;;;28.40;51.30;;;;;;5029545;28;20463;-79
2023/08/14 07:52:31;;;;;;;10.37;9.30;;;28.50;51.30;;;;;;5031079;28;20436;-79
2023/08/14 07:54:58;;;;;;;10.37;9.07;;;28.60;51.20;;;;;;5032588;28;20526;-79
2023/08/14 07:57:26;;;;;;;10.33;9.03;;;28.60;51.20;;;;;;5019287;28;20437;-80
2023/08/14 07:59:56;;;;;;;10.60;9.30;;;28.70;51.20;;;;;;5019486;28;20451;-80
2023/08/14 08:02:24;;;;;;;9.60;8.60;;;28.70;51.00;;;;;;5017031;28;20541;-80
2023/08/14 08:04:55;;;;;;;10.80;9.20;;;28.80;51.00;;;;;;5030078;28;20466;-80
2023/08/14 08:07:23;;;;;;;10.83;8.87;;;28.80;51.00;;;;;;5028064;28;20418;-81
2023/08/14 08:09:52;;;;;;;9.73;8.73;;;28.90;51.10;;;;;;5028448;28;20466;-77
2023/08/14 08:12:20;;;;;;;10.17;9.17;;;28.90;50.90;;;;;;5021697;28;20434;-80
2023/08/14 08:14:49;;;;;;;9.50;8.60;;;28.90;50.90;;;;;;5028786;28;20471;-79
2023/08/14 08:17:18;;;;;;;11.00;9.27;;;29.00;50.90;;;;;;5024594;28;20443;-78
2023/08/14 08:19:50;;;;;;;8.97;8.17;;;28.90;50.80;;;;;;5029572;28;20470;-78
2023/08/14 08:22:18;;;;;;;10.43;9.33;;;29.00;50.90;;;;;;5022807;28;20550;-80
2023/08/14 08:24:47;;;;;;;9.93;8.80;;;29.00;50.90;;;;;;5028761;28;20435;-83
2023/08/14 08:27:15;;;;;;;9.33;8.40;;;29.00;51.00;;;;;;5031948;28;20447;-83
2023/08/14 08:29:43;;;;;;;8.97;8.07;;;29.00;51.10;;;;;;5024402;28;20513;-83
2023/08/14 08:32:11;;;;;;;11.60;9.67;;;29.10;51.10;;;;;;5027682;28;20447;-81
2023/08/14 08:34:40;;;;;;;9.70;8.70;;;29.10;51.10;;;;;;5030129;28;20479;-82
2023/08/14 08:37:08;;;;;;;11.33;8.50;;;29.10;51.00;;;;;;5029916;28;20426;-81
2023/08/14 08:39:37;;;;;;;9.33;8.40;;;29.20;50.90;;;;;;5034510;28;20526;-82
2023/08/14 08:42:06;;;;;;;11.03;9.23;;;29.30;51.00;;;;;;5033464;28;20482;-83
2023/08/14 08:44:35;;;;;;;9.60;8.63;;;29.40;50.90;;;;;;5034377;28;20471;-81
2023/08/14 08:47:05;;;;;;;9.80;8.80;;;29.50;50.80;;;;;;5023544;28;20430;-83
2023/08/14 08:49:33;;;;;;;10.00;8.80;;;29.60;50.70;;;;;;5031442;28;20522;-83
2023/08/14 08:52:02;;;;;;;9.13;8.20;;;29.60;50.50;;;;;;5026100;28;20447;-84
2023/08/14 08:54:30;;;;;;;10.83;8.90;;;29.60;50.50;;;;;;5031943;28;20501;-84
2023/08/14 08:56:59;;;;;;;9.70;8.70;;;29.70;50.50;;;;;;5032643;28;20448;-83
2023/08/14 08:59:27;;;;;;;10.40;9.30;;;29.80;50.50;;;;;;5027697;28;20468;-82
2023/08/14 09:01:55;;;;;;;9.40;8.47;;;29.90;50.60;;;;;;5037077;28;20431;-80
2023/08/14 09:04:25;;;;;;;10.10;9.07;;;29.90;50.40;;;;;;5031700;28;20473;-81
2023/08/14 09:06:53;;;;;;;9.13;8.23;;;29.90;50.30;;;;;;5033847;28;20518;-81
2023/08/14 09:09:23;;;;;;;9.87;8.80;;;29.90;50.40;;;;;;5033485;28;20478;-81
2023/08/14 09:11:51;;;;;;;11.10;9.80;;;30.00;50.40;;;;;;5027556;28;20444;-81
2023/08/14 09:14:19;;;;;;;9.50;8.27;;;30.00;50.30;;;;;;5021665;28;20444;-82
2023/08/14 09:16:47;;;;;;;8.87;7.97;;;30.00;50.30;;;;;;5035099;28;20448;-82
2023/08/14 09:19:20;;;;;;;9.00;8.10;;;30.00;50.30;;;;;;5036967;28;20456;-82
2023/08/14 09:21:47;;;;;;;8.80;7.97;;;30.10;50.40;;;;;;5039859;28;20444;-83
2023/08/14 09:24:15;;;;;;;8.97;8.07;;;30.20;50.40;;;;;;5031096;28;20518;-80
2023/08/14 09:26:45;;;;;;;9.70;8.40;;;30.40;50.40;;;;;;5032423;28;20459;-80
2023/08/14 09:29:13;;;;;;;8.67;7.77;;;30.50;50.20;;;;;;5018565;28;20464;-81
2023/08/14 09:31:43;;;;;;;8.10;7.33;;;30.80;50.10;;;;;;5037165;28;20442;-80
2023/08/14 09:34:16;;;;;;;8.50;7.70;;;31.10;49.80;;;;;;5035800;28;20432;-79
2023/08/14 09:36:44;;;;;;;8.47;7.67;;;31.20;49.20;;;;;;5026585;28;20459;-81
2023/08/14 09:39:12;;;;;;;8.20;7.40;;;31.20;49.10;;;;;;5027771;28;20459;-81
2023/08/14 09:41:40;;;;;;;7.90;7.10;;;31.10;49.00;;;;;;5038948;28;20431;-81
2023/08/14 09:44:09;;;;;;;8.00;7.20;;;31.20;49.50;;;;;;5038126;28;20568;-80
2023/08/14 09:46:37;;;;;;;7.80;6.97;;;31.40;49.40;;;;;;5032479;28;20503;-79
2023/08/14 09:49:06;;;;;;;9.13;6.90;;;31.60;49.20;;;;;;5032452;28;20482;-79
2023/08/14 09:51:34;;;;;;;7.83;7.13;;;31.80;49.00;;;;;;5030633;28;20432;-80
2023/08/14 09:54:03;;;;;;;7.37;6.77;;;32.00;48.80;;;;;;5033286;28;20510;-81
2023/08/14 09:56:31;;;;;;;7.90;7.20;;;32.10;48.50;;;;;;5035849;28;20938;-79
2023/08/14 09:58:59;;;;;;;6.93;6.33;;;32.30;48.40;;;;;;5026280;28;20467;-81
2023/08/14 10:01:28;;;;;;;7.27;6.57;;;32.50;48.20;;;;;;5038573;28;20455;-81
2023/08/14 10:03:56;;;;;;;8.00;7.30;;;32.70;47.90;;;;;;5033089;28;20477;-81
2023/08/14 10:06:24;;;;;;;7.27;6.43;;;32.90;47.80;;;;;;5036012;28;20487;-81
2023/08/14 10:08:55;;;;;;;6.83;6.23;;;33.10;47.60;;;;;;5028205;28;20452;-80
2023/08/14 10:11:25;;;;;;;6.70;6.10;;;33.20;47.40;;;;;;5023386;28;20439;-78
2023/08/14 10:13:56;;;;;;;6.70;6.10;;;33.40;47.30;;;;;;5030718;28;20439;-81
2023/08/14 10:16:24;;;;;;;6.30;5.80;;;33.50;47.00;;;;;;5036947;28;20490;-81
2023/08/14 10:18:55;;;;;;;6.67;6.17;;;33.70;46.90;;;;;;5032365;28;20521;-81
2023/08/14 10:21:24;;;;;;;6.63;6.03;;;33.80;46.70;;;;;;5024024;28;20442;-79
2023/08/14 10:23:52;;;;;;;6.67;6.07;;;34.00;46.50;;;;;;5025314;28;20993;-81
2023/08/14 10:26:20;;;;;;;7.50;5.63;;;34.10;46.40;;;;;;5030809;28;20497;-79
2023/08/14 10:28:48;;;;;;;5.90;5.40;;;34.20;46.30;;;;;;5020629;28;20491;-81
2023/08/14 10:31:16;;;;;;;5.63;5.23;;;34.40;46.20;;;;;;5021634;28;20452;-81
2023/08/14 10:33:44;;;;;;;6.37;5.77;;;34.50;46.00;;;;;;5029377;28;20476;-83
2023/08/14 10:36:20;;;;;;;5.60;5.20;;;34.70;45.80;;;;;;5023188;28;20444;-83
2023/08/14 10:38:49;;;;;;;5.60;5.20;;;34.90;45.80;;;;;;5028159;28;20455;-82
2023/08/14 10:41:32;;;;;;;5.37;4.97;;;35.00;45.70;;;;;;5029013;28;20436;-80
2023/08/14 10:44:04;;;;;;;5.60;5.10;;;35.10;45.50;;;;;;5029332;28;20440;-80
2023/08/14 10:46:32;;;;;;;4.93;4.63;;;35.20;45.30;;;;;;5021922;28;20463;-81
2023/08/14 10:49:00;;;;;;;4.70;4.40;;;35.40;45.10;;;;;;5030985;28;20483;-80
2023/08/14 10:51:31;;;;;;;4.90;4.50;;;35.50;45.60;;;;;;5024976;28;20480;-80
2023/08/14 10:54:09;;;;;;;5.80;5.30;;;35.60;44.80;;;;;;5034658;28;20471;-82
2023/08/14 10:56:42;;;;;;;5.03;4.67;;;35.80;44.70;;;;;;5037408;28;20439;-81
2023/08/14 10:59:20;;;;;;;4.93;4.10;;;35.90;44.60;;;;;;5036143;28;21222;-81
2023/08/14 11:01:51;;;;;;;4.40;4.10;;;36.10;44.50;;;;;;5033845;28;20454;-81
2023/08/14 11:04:20;;;;;;;4.60;4.20;;;36.00;44.20;;;;;;5024153;28;20809;-80
2023/08/14 11:07:08;;;;;;;4.70;4.30;;;35.80;44.20;;;;;;5031230;28;20505;-81
2023/08/14 11:09:36;;;;;;;4.20;4.00;;;36.00;44.70;;;;;;5028451;28;20448;-80
2023/08/14 11:12:06;;;;;;;4.30;4.00;;;36.00;44.40;;;;;;5034273;28;20474;-80
2023/08/14 11:14:35;;;;;;;3.60;3.40;;;36.20;44.30;;;;;;5021437;28;20480;-80
2023/08/14 11:17:03;;;;;;;4.07;3.77;;;36.40;44.20;;;;;;5026187;28;20527;-80
2023/08/14 11:19:34;;;;;;;3.90;3.70;;;36.50;43.90;;;;;;5031593;28;20526;-80
2023/08/14 11:22:02;;;;;;;3.70;3.50;;;36.70;43.70;;;;;;5017536;28;20448;-81
2023/08/14 11:24:33;;;;;;;3.87;3.57;;;36.90;43.60;;;;;;5023831;28;20526;-80
2023/08/14 11:27:01;;;;;;;3.67;3.40;;;37.00;43.20;;;;;;5026250;28;20563;-78
2023/08/14 11:29:29;;;;;;;3.50;3.30;;;37.20;43.10;;;;;;5022262;28;20474;-81
2023/08/14 11:32:00;;;;;;;3.47;3.23;;;37.40;42.80;;;;;;5019801;28;20451;-80
2023/08/14 11:34:27;;;;;;;3.10;3.00;;;37.50;42.60;;;;;;5031656;28;20471;-80
2023/08/14 11:36:56;;;;;;;3.50;3.30;;;37.60;42.40;;;;;;5032340;28;20479;-79
2023/08/14 11:39:36;;;;;;;3.33;3.20;;;37.80;42.20;;;;;;5033352;28;20455;-80
2023/08/14 11:42:04;;;;;;;3.37;3.10;;;37.90;42.60;;;;;;5024028;28;20527;-80
2023/08/14 11:44:34;;;;;;;4.37;2.90;;;38.10;41.80;;;;;;5027840;28;20460;-79
2023/08/14 11:47:02;;;;;;;3.17;3.00;;;38.20;41.40;;;;;;5022152;28;20455;-79
2023/08/14 11:49:31;;;;;;;3.47;3.27;;;38.30;41.20;;;;;;5027124;28;20521;-80
2023/08/14 11:51:59;;;;;;;2.93;2.83;;;38.00;41.00;;;;;;5024013;28;20912;-81
2023/08/14 11:54:27;;;;;;;3.10;3.00;;;37.90;41.40;;;;;;5028794;28;20479;-79
2023/08/14 11:56:56;;;;;;;3.20;3.10;;;37.60;41.80;;;;;;5029887;28;20440;-80
2023/08/14 11:59:25;;;;;;;3.00;2.83;;;37.70;42.30;;;;;;5023535;28;20559;-81
2023/08/14 12:01:53;;;;;;;2.93;2.83;;;37.80;42.00;;;;;;5032839;28;20466;-78
2023/08/14 12:04:21;;;;;;;2.77;2.57;;;37.90;41.80;;;;;;5030523;28;20520;-79
2023/08/14 12:06:49;;;;;;;2.87;2.77;;;38.00;41.60;;;;;;5020145;28;20488;-79
2023/08/14 12:09:16;;;;;;;2.90;2.70;;;38.00;41.70;;;;;;5026797;28;20476;-79
2023/08/14 12:11:45;;;;;;;2.47;2.27;;;38.10;41.60;;;;;;5016521;28;20995;-78
2023/08/14 12:14:14;;;;;;;3.33;3.00;;;38.30;41.40;;;;;;5013808;28;20524;-79
2023/08/14 12:16:45;;;;;;;2.67;2.50;;;38.50;41.10;;;;;;5018814;28;20813;-79
2023/08/14 12:19:13;;;;;;;2.83;2.70;;;38.60;40.70;;;;;;5022826;28;20511;-77
2023/08/14 12:21:41;;;;;;;2.60;2.40;;;38.70;40.60;;;;;;5027315;28;20543;-80
2023/08/14 12:24:09;;;;;;;2.27;2.17;;;38.80;40.40;;;;;;5022967;28;20526;-76
2023/08/14 12:26:39;;;;;;;2.50;2.30;;;38.90;40.20;;;;;;5021172;28;20495;-77
2023/08/14 12:29:07;;;;;;;2.07;2.07;;;39.00;39.80;;;;;;5022931;28;20494;-77
2023/08/14 12:31:36;;;;;;;2.10;2.00;;;39.20;39.50;;;;;;5025682;28;20518;-81
2023/08/14 12:34:04;;;;;;;2.10;2.00;;;39.30;39.60;;;;;;5025111;28;20506;-78
2023/08/14 12:36:34;;;;;;;2.90;2.70;;;39.40;39.40;;;;;;5024062;28;20440;-82
2023/08/14 12:39:02;;;;;;;2.20;2.10;;;39.50;39.20;;;;;;5023454;28;20474;-78
2023/08/14 12:41:29;;;;;;;3.13;2.10;;;39.60;39.00;;;;;;5023903;28;20499;-80
2023/08/14 12:43:57;;;;;;;2.20;2.10;;;39.70;38.90;;;;;;5017661;28;20447;-82
2023/08/14 12:46:25;;;;;;;2.07;1.97;;;39.80;38.60;;;;;;5032729;28;20451;-81
2023/08/14 12:48:55;;;;;;;2.20;2.10;;;39.90;38.40;;;;;;5023753;28;20477;-80
2023/08/14 12:51:22;;;;;;;2.17;2.07;;;40.00;38.00;;;;;;5024630;28;20462;-80
2023/08/14 12:53:50;;;;;;;1.90;1.80;;;40.10;38.00;;;;;;5024697;28;20447;-81